Date,TemperatureHighF,TemperatureAvgF,TemperatureLowF,DewpointHighF,DewpointAvgF,DewpointLowF,HumidityHigh,HumidityAvg,HumidityLow,PressureMaxIn,PressureMinIn,WindSpeedMaxMPH,WindSpeedAvgMPH,GustSpeedMaxMPH,PrecipitationSumIn
2014-1-1,14,10,7,12,7,4,90,87,83,30.33,30.26,5,3,0,0.00
2014-1-2,13,7,-4,8,3,-7,85,81,78,30.52,30.29,6,2,0,0.00
2014-1-4,32,25,19,26,18,-100,92,79,72,30.08,29.80,7,4,0,0.00
2014-1-5,19,8,-9,15,1,-16,85,73,64,30.33,30.08,9,5,0,0.00
2014-1-6,-7,-10,-15,-12,-17,-22,77,71,66,30.43,30.34,8,5,0,0.00
2014-1-7,7,0,-8,2,-6,-13,89,76,67,30.40,30.26,2,1,0,0.00
2014-1-8,10,4,-2,2,-1,-6,86,79,64,30.57,30.34,3,0,0,0.00
2014-1-9,26,11,1,25,8,-2,95,85,74,30.57,30.16,3,0,0,0.00
2014-1-10,39,33,26,38,32,25,98,97,95,30.15,29.50,4,2,0,0.00
2014-1-11,36,31,29,35,28,-100,98,91,79,29.86,29.49,7,3,0,0.00
2014-1-12,46,36,26,35,30,24,94,79,57,29.86,29.50,7,2,14,0.00
2014-1-13,38,34,29,34,30,26,92,86,73,29.80,29.57,6,2,0,0.00
2014-1-14,35,28,17,32,24,14,95,83,73,30.04,29.61,10,6,0,0.00
2014-1-15,23,14,8,17,10,4,86,80,74,30.21,29.83,5,3,0,0.00
2014-1-16,36,26,10,32,20,4,88,77,65,29.86,29.55,10,5,0,0.00
2014-1-17,15,11,6,9,6,1,86,80,74,30.09,29.86,6,4,0,0.00
2014-1-18,22,15,8,20,12,-100,92,88,84,30.03,29.65,6,2,0,0.00
2014-1-19,41,27,8,32,21,6,91,80,66,29.99,29.61,5,2,0,0.00
2014-1-20,35,28,13,31,24,10,94,87,77,30.19,29.73,5,2,0,0.00
2014-1-21,13,4,-1,11,-2,-7,90,76,70,30.45,30.20,6,2,0,0.00
2014-1-22,15,9,-1,10,4,-8,86,79,73,30.40,30.04,9,3,0,0.00
2014-1-23,1,-3,-7,-6,-9,-13,82,75,69,30.77,30.41,6,4,0,0.00
2014-1-24,31,16,-3,29,8,-7,92,70,57,30.64,29.57,7,3,0,0.00
2014-1-25,34,18,8,32,8,-100,95,69,52,29.97,29.55,11,5,0,0.00
2014-1-26,35,22,1,29,17,-3,93,81,66,30.08,29.44,13,6,0,0.00
2014-1-27,1,-3,-7,-3,-9,-12,82,74,64,30.57,30.08,9,5,0,0.00
2014-1-28,10,0,-9,0,-6,-13,84,75,62,30.57,30.33,4,1,0,0.00
2014-1-29,29,15,2,12,4,-4,75,61,45,30.33,29.92,6,2,0,0.00
2014-1-30,34,26,14,28,17,10,92,69,52,30.02,29.64,7,5,0,0.00
2014-1-31,14,10,6,10,4,0,83,75,69,30.25,30.02,5,1,0,0.00
2014-2-1,22,17,13,20,13,-100,91,87,80,30.20,29.96,5,1,0,0.00
2014-2-2,14,4,-4,10,-1,-8,86,80,73,30.42,30.21,4,1,0,0.00
2014-2-3,20,7,-7,6,0,-10,87,72,54,30.48,30.40,1,0,0,0.00
2014-2-4,18,14,9,14,9,4,91,80,68,30.45,30.21,3,1,0,0.00
2014-2-5,17,11,-2,15,8,-6,92,86,81,30.58,30.17,7,4,0,0.00
2014-2-6,5,-2,-9,-2,-7,-13,84,78,71,30.61,30.49,4,1,0,0.00
2014-2-7,14,5,-4,4,-2,-8,84,72,57,30.50,30.36,2,0,0,0.00
2014-2-8,18,14,8,15,10,0,91,84,70,30.36,30.16,1,0,0,0.00
2014-2-9,15,6,-5,13,2,-9,91,83,75,30.44,30.19,5,2,0,0.00
2014-2-10,4,-5,-13,-3,-10,-17,84,79,71,30.60,30.43,3,1,0,0.00
2014-2-11,13,-1,-15,1,-8,-19,85,74,56,30.63,30.39,2,0,0,0.00
2014-2-12,24,16,4,16,7,-4,75,69,55,30.39,30.01,3,1,0,0.00
2014-2-13,38,25,15,30,17,9,80,73,68,30.02,29.60,8,3,0,0.00
2014-2-14,17,11,5,11,7,0,88,81,75,30.08,29.75,5,2,0,0.00
2014-2-15,19,13,0,16,7,-100,90,80,65,30.14,29.97,4,1,0,0.00
2014-2-16,25,21,18,17,15,14,90,80,68,30.27,30.01,5,2,0,0.00
2014-2-17,31,25,21,29,22,15,95,88,77,30.20,29.76,8,3,0,0.00
2014-2-18,49,36,23,32,28,21,92,74,49,29.96,29.64,6,2,0,0.00
2014-2-19,42,34,25,32,29,23,92,81,55,29.97,29.74,4,1,0,0.00
2014-2-20,45,36,33,44,34,29,98,94,80,29.83,29.12,7,4,0,0.00
2014-2-21,35,29,22,30,21,16,90,75,56,29.88,29.44,7,4,0,0.00
2014-2-22,29,24,17,21,16,-100,87,72,60,30.16,29.88,5,1,0,0.00
2014-2-23,24,18,14,15,10,6,81,70,54,30.36,30.17,6,4,0,0.00
2014-2-24,20,16,11,12,8,5,86,72,60,30.42,30.31,4,2,0,0.00
2014-2-25,14,9,5,11,4,-3,88,77,63,30.39,30.32,7,3,0,0.00
2014-2-26,20,8,-3,11,-2,-9,78,66,53,30.42,29.82,10,3,0,0.00
2014-3-1,26,16,6,23,11,-100,92,81,65,30.45,30.06,7,4,0,0.00
2014-3-2,6,2,-5,3,-5,-12,87,71,57,30.58,30.42,7,5,0,0.00
2014-3-3,12,2,-10,4,-6,-16,76,68,57,30.63,30.42,5,1,0,0.00
2014-3-4,28,19,10,17,10,4,79,68,47,30.42,30.18,3,1,0,0.00
2014-3-5,23,20,17,18,16,12,92,82,75,30.45,30.26,5,3,0,0.00
2014-3-6,31,21,9,21,15,6,90,78,64,30.44,30.08,4,1,0,0.00
2014-3-7,49,35,22,35,27,18,91,75,51,30.07,29.88,3,1,0,0.00
2014-3-12,36,32,25,34,25,21,92,76,58,30.14,29.78,8,5,0,0.00
2014-3-13,49,35,20,39,28,17,92,76,62,30.14,29.82,5,2,0,0.00
2014-3-14,52,45,36,38,34,29,87,67,54,29.93,29.62,8,3,0,0.00
2014-3-15,44,35,29,32,26,-100,90,76,55,30.22,29.93,5,2,0,0.00
2014-3-16,31,25,19,29,18,11,94,75,57,30.39,30.20,7,4,0,0.00
2014-3-17,40,27,15,23,14,-100,89,62,38,30.19,29.74,5,2,0,0.00
2014-3-18,52,43,32,41,34,24,88,72,59,29.77,29.58,8,3,0,0.00
2014-3-19,43,37,31,41,34,27,96,88,75,30.06,29.53,8,3,0,0.00
2014-3-20,48,37,27,33,27,-100,92,71,45,30.09,29.96,2,0,0,0.00
2014-3-21,59,43,32,40,32,-100,86,69,48,30.00,29.71,10,3,0,0.00
2014-3-22,37,32,24,29,20,-100,88,67,39,30.41,30.01,7,5,0,0.00
2014-3-23,31,24,16,14,10,7,77,58,38,30.53,30.40,7,3,0,0.00
2014-3-24,37,28,19,27,16,11,86,63,44,30.45,30.17,2,0,0,0.00
2014-3-25,24,20,17,12,12,11,79,68,58,30.31,30.28,5,2,0,0.00